createdAt,value
2018-04-08T00:02:02.924Z,11.90
2018-04-08T00:04:30.494Z,12.00
2018-04-08T00:06:58.943Z,12.00
2018-04-08T00:09:26.484Z,12.00
2018-04-08T00:11:54.046Z,12.00
2018-04-08T00:14:21.586Z,11.90
2018-04-08T00:16:49.144Z,11.90
2018-04-08T00:19:16.772Z,11.80
2018-04-08T00:21:44.344Z,11.80
2018-04-08T00:24:11.879Z,11.90
2018-04-08T00:26:40.212Z,12.00
2018-04-08T00:29:07.757Z,12.00
2018-04-08T00:31:35.314Z,12.00
2018-04-08T00:34:02.873Z,12.00
2018-04-08T00:36:30.443Z,12.10
2018-04-08T00:38:58.013Z,12.00
2018-04-08T00:41:25.565Z,12.00
2018-04-08T00:43:53.106Z,11.90
2018-04-08T00:46:20.664Z,12.00
2018-04-08T00:48:48.201Z,12.00
2018-04-08T00:51:15.756Z,12.10
2018-04-08T00:53:43.305Z,12.10
2018-04-08T00:56:10.872Z,12.10
2018-04-08T00:58:39.217Z,12.00
2018-04-08T01:01:07.761Z,12.00
2018-04-08T01:03:35.305Z,12.00
2018-04-08T01:06:02.862Z,11.90
2018-04-08T01:08:30.392Z,11.80
2018-04-08T01:10:57.950Z,11.70
2018-04-08T01:13:25.516Z,11.70
2018-04-08T01:15:53.087Z,11.80
2018-04-08T01:18:20.632Z,11.70
2018-04-08T01:20:48.189Z,11.70
2018-04-08T01:23:15.732Z,11.60
2018-04-08T01:25:43.300Z,11.60
2018-04-08T01:28:10.821Z,11.50
2018-04-08T01:30:38.396Z,11.40
2018-04-08T01:33:05.941Z,11.40
2018-04-08T01:35:33.531Z,11.40
2018-04-08T01:38:01.072Z,11.40
2018-04-08T01:40:28.627Z,11.40
2018-04-08T01:42:56.197Z,11.30
2018-04-08T01:45:23.864Z,11.20
2018-04-08T01:47:51.412Z,11.10
2018-04-08T01:50:18.963Z,11.10
2018-04-08T01:52:46.520Z,11.00
2018-04-08T01:55:14.074Z,11.00
2018-04-08T01:57:42.396Z,11.00
2018-04-08T02:00:09.948Z,11.00
2018-04-08T02:02:37.507Z,10.90
2018-04-08T02:05:05.037Z,11.00
2018-04-08T02:07:33.359Z,11.10
2018-04-08T02:10:00.907Z,11.00
2018-04-08T02:12:28.463Z,11.00
2018-04-08T02:14:56.036Z,11.10
2018-04-08T02:17:23.595Z,11.00
2018-04-08T02:19:51.140Z,10.90
2018-04-08T02:22:18.700Z,10.90
2018-04-08T02:24:46.266Z,10.90
2018-04-08T02:27:13.826Z,10.80
2018-04-08T02:29:41.385Z,10.80
2018-04-08T02:32:08.948Z,10.80
2018-04-08T02:34:36.507Z,10.80
2018-04-08T02:37:04.049Z,10.80
2018-04-08T02:39:31.621Z,10.80
2018-04-08T02:41:59.168Z,10.70
2018-04-08T02:44:26.739Z,10.60
2018-04-08T02:46:54.297Z,10.60
2018-04-08T02:49:21.862Z,10.50
2018-04-08T02:51:49.405Z,10.30
2018-04-08T02:54:16.979Z,10.20
2018-04-08T02:56:44.530Z,10.20
2018-04-08T02:59:12.094Z,10.20
2018-04-08T03:01:39.671Z,10.10
2018-04-08T03:04:07.256Z,10.10
2018-04-08T03:06:34.809Z,10.10
2018-04-08T03:09:02.374Z,10.10
2018-04-08T03:11:29.943Z,10.20
2018-04-08T03:13:57.512Z,10.10
2018-04-08T03:16:25.069Z,10.10
2018-04-08T03:18:52.632Z,10.10
2018-04-08T03:21:20.178Z,10.10
2018-04-08T03:23:47.771Z,10.20
2018-04-08T03:26:16.082Z,10.00
2018-04-08T03:28:43.653Z,10.00
2018-04-08T03:31:11.226Z,10.00
2018-04-08T03:33:38.808Z,10.00
2018-04-08T03:36:06.386Z,10.00
2018-04-08T03:38:34.745Z,9.90
2018-04-08T03:41:02.375Z,9.90
2018-04-08T03:43:29.919Z,9.90
2018-04-08T03:45:57.474Z,9.90
2018-04-08T03:48:25.022Z,10.00
2018-04-08T03:50:52.636Z,9.90
2018-04-08T03:53:20.171Z,9.80
2018-04-08T03:55:47.751Z,9.90
2018-04-08T03:58:15.292Z,9.90
2018-04-08T04:00:42.851Z,9.90
2018-04-08T04:03:10.399Z,9.80
2018-04-08T04:05:37.981Z,9.90
2018-04-08T04:08:05.530Z,9.80
2018-04-08T04:10:33.084Z,9.90
2018-04-08T04:13:00.646Z,9.90
2018-04-08T04:15:28.229Z,9.90
2018-04-08T04:17:55.768Z,9.90
2018-04-08T04:20:35.098Z,9.80
2018-04-08T04:23:14.590Z,9.80
2018-04-08T04:25:53.932Z,9.80
2018-04-08T04:28:22.430Z,9.80
2018-04-08T04:30:50.009Z,9.80
2018-04-08T04:33:17.558Z,9.90
2018-04-08T04:35:45.854Z,9.80
2018-04-08T04:38:13.404Z,9.80
2018-04-08T04:40:40.954Z,9.90
2018-04-08T04:43:09.291Z,9.90
2018-04-08T04:45:37.390Z,9.80
2018-04-08T04:48:05.732Z,9.90
2018-04-08T04:50:33.341Z,9.90
2018-04-08T04:53:01.695Z,10.00
2018-04-08T04:55:30.059Z,10.00
2018-04-08T04:57:57.633Z,9.90
2018-04-08T05:00:25.197Z,10.10
2018-04-08T05:02:52.748Z,10.10
2018-04-08T05:05:20.297Z,10.20
2018-04-08T05:07:47.866Z,10.40
2018-04-08T05:10:16.171Z,11.20
2018-04-08T05:12:44.510Z,11.50
2018-04-08T05:15:12.060Z,11.40
2018-04-08T05:17:39.633Z,11.70
2018-04-08T05:20:07.194Z,11.90
2018-04-08T05:22:34.757Z,12.20
2018-04-08T05:25:02.397Z,12.40
2018-04-08T05:27:29.983Z,12.40
2018-04-08T05:29:57.525Z,12.50
2018-04-08T05:32:25.086Z,12.60
2018-04-08T05:34:52.668Z,12.80
2018-04-08T05:37:20.207Z,12.90
2018-04-08T05:39:47.797Z,13.20
2018-04-08T05:42:15.334Z,13.40
2018-04-08T05:44:42.897Z,13.50
2018-04-08T05:47:10.446Z,13.60
2018-04-08T05:49:38.054Z,13.50
2018-04-08T05:52:05.594Z,13.60
2018-04-08T05:54:33.205Z,13.60
2018-04-08T05:57:00.743Z,13.70
2018-04-08T05:59:29.084Z,14.50
2018-04-08T06:01:56.680Z,14.50
2018-04-08T06:04:25.085Z,15.10
2018-04-08T06:06:52.704Z,15.10
2018-04-08T06:09:20.299Z,15.20
2018-04-08T06:11:47.847Z,15.50
2018-04-08T06:14:16.182Z,15.10
2018-04-08T06:16:43.760Z,15.20
2018-04-08T06:19:11.339Z,15.30
2018-04-08T06:21:39.640Z,15.60
2018-04-08T06:24:07.214Z,15.60
2018-04-08T06:26:34.809Z,15.50
2018-04-08T06:29:02.386Z,15.60
2018-04-08T06:31:29.930Z,15.70
2018-04-08T06:33:57.499Z,16.10
2018-04-08T06:36:25.038Z,16.00
2018-04-08T06:38:52.613Z,15.90
2018-04-08T06:41:23.281Z,15.80
2018-04-08T06:43:50.881Z,16.00
2018-04-08T06:46:18.452Z,15.90
2018-04-08T06:48:46.002Z,16.00
2018-04-08T06:51:13.567Z,16.00
2018-04-08T06:53:41.125Z,15.90
2018-04-08T06:56:08.703Z,16.00
2018-04-08T06:58:36.272Z,16.10
2018-04-08T07:01:03.816Z,16.50
2018-04-08T07:03:31.378Z,16.80
2018-04-08T07:05:58.970Z,16.60
2018-04-08T07:08:26.548Z,16.70
2018-04-08T07:10:54.871Z,16.90
2018-04-08T07:13:22.419Z,16.90
2018-04-08T07:15:50.003Z,17.20
2018-04-08T07:18:17.706Z,17.70
2018-04-08T07:20:45.218Z,17.80
2018-04-08T07:23:12.765Z,17.90
2018-04-08T07:25:40.353Z,16.90
2018-04-08T07:28:07.900Z,17.10
2018-04-08T07:30:35.473Z,17.70
2018-04-08T07:33:03.022Z,17.50
2018-04-08T07:35:30.583Z,17.30
2018-04-08T07:37:58.169Z,17.60
2018-04-08T07:40:25.737Z,17.40
2018-04-08T07:42:53.263Z,17.60
2018-04-08T07:45:20.839Z,17.60
2018-04-08T07:47:48.381Z,17.90
2018-04-08T07:50:15.940Z,17.70
2018-04-08T07:52:43.509Z,17.90
2018-04-08T07:55:11.126Z,17.80
2018-04-08T07:57:38.707Z,17.60
2018-04-08T08:00:06.273Z,17.10
2018-04-08T08:02:33.822Z,17.50
2018-04-08T08:05:01.397Z,18.00
2018-04-08T08:07:28.933Z,18.00
2018-04-08T08:09:56.498Z,18.50
2018-04-08T08:12:24.053Z,18.70
2018-04-08T08:14:51.663Z,18.60
2018-04-08T08:17:19.211Z,18.80
2018-04-08T08:19:46.758Z,18.90
2018-04-08T08:22:14.329Z,18.50
2018-04-08T08:24:41.878Z,18.50
2018-04-08T08:27:09.490Z,18.20
2018-04-08T08:29:37.037Z,18.60
2018-04-08T08:32:04.620Z,18.20
2018-04-08T08:34:32.919Z,18.70
2018-04-08T08:37:00.489Z,18.70
2018-04-08T08:39:28.041Z,18.60
2018-04-08T08:41:55.602Z,18.40
2018-04-08T08:44:23.161Z,19.20
2018-04-08T08:46:50.827Z,19.30
2018-04-08T08:49:18.367Z,19.30
2018-04-08T08:51:45.935Z,19.10
2018-04-08T08:54:13.582Z,19.60
2018-04-08T08:56:41.909Z,19.20
2018-04-08T08:59:09.473Z,19.20
2018-04-08T09:01:37.018Z,18.80
2018-04-08T09:04:04.591Z,18.90
2018-04-08T10:28:30.104Z,20.40
2018-04-08T10:30:57.664Z,20.40
2018-04-08T10:33:25.219Z,20.40
2018-04-08T10:35:52.811Z,21.30
2018-04-08T10:38:21.172Z,20.40
2018-04-08T10:40:48.720Z,20.30
2018-04-08T10:43:16.291Z,20.50
2018-04-08T10:45:44.619Z,20.70
2018-04-08T10:48:12.306Z,20.70
2018-04-08T10:50:39.858Z,20.70
2018-04-08T10:53:07.422Z,20.50
2018-04-08T10:55:34.997Z,20.70
2018-04-08T10:58:02.557Z,20.70
2018-04-08T11:00:30.113Z,20.80
2018-04-08T11:02:58.690Z,20.90
2018-04-08T11:05:26.259Z,20.80
2018-04-08T11:07:53.820Z,20.90
2018-04-08T11:10:21.354Z,20.70
2018-04-08T11:12:48.980Z,20.40
2018-04-08T11:15:17.326Z,20.60
2018-04-08T11:17:44.877Z,20.60
2018-04-08T11:20:12.475Z,20.60
2018-04-08T11:22:41.021Z,20.70
2018-04-08T11:25:08.666Z,20.20
2018-04-08T11:27:36.225Z,19.90
2018-04-08T11:30:03.786Z,19.90
2018-04-08T11:32:31.350Z,20.50
2018-04-08T11:34:58.921Z,20.80
2018-04-08T11:37:26.575Z,20.90
2018-04-08T11:39:54.134Z,20.60
2018-04-08T11:42:21.716Z,20.70
2018-04-08T11:44:49.311Z,20.50
2018-04-08T11:47:17.639Z,19.70
2018-04-08T11:49:46.267Z,19.70
2018-04-08T11:52:14.368Z,19.70
2018-04-08T11:54:41.986Z,20.00
2018-04-08T11:57:09.616Z,20.00
2018-04-08T11:59:37.179Z,20.20
2018-04-08T12:02:04.766Z,20.30
2018-04-08T12:04:32.341Z,20.10
2018-04-08T12:06:59.888Z,20.00
2018-04-08T12:09:27.458Z,20.00
2018-04-08T12:11:54.989Z,20.10
2018-04-08T12:14:22.583Z,20.20
2018-04-08T12:16:50.906Z,20.30
2018-04-08T12:19:18.469Z,20.30
2018-04-08T12:21:46.007Z,20.30
2018-04-08T12:24:14.355Z,20.30
2018-04-08T12:26:46.494Z,20.30
2018-04-08T12:29:14.098Z,20.20
2018-04-08T12:31:41.634Z,20.30
2018-04-08T12:34:09.212Z,20.60
2018-04-08T12:36:36.788Z,20.60
2018-04-08T12:39:04.376Z,20.40
2018-04-08T12:41:32.364Z,20.40
2018-04-08T12:43:59.951Z,20.40
2018-04-08T12:46:27.520Z,20.20
2018-04-08T12:48:55.097Z,20.40
2018-04-08T12:51:23.410Z,20.70
2018-04-08T12:53:50.993Z,20.70
2018-04-08T12:56:18.543Z,20.60
2018-04-08T12:58:46.194Z,20.40
2018-04-08T13:01:13.727Z,20.70
2018-04-08T13:03:42.056Z,20.40
2018-04-08T13:06:09.598Z,20.30
2018-04-08T13:08:37.189Z,20.10
2018-04-08T13:11:04.722Z,20.20
2018-04-08T13:13:32.292Z,20.00
2018-04-08T13:15:59.847Z,20.10
2018-04-08T13:18:27.402Z,20.20
2018-04-08T13:20:54.951Z,20.50
2018-04-08T13:23:22.595Z,20.30
2018-04-08T13:25:50.172Z,20.50
2018-04-08T13:28:17.806Z,20.50
2018-04-08T13:30:46.190Z,20.40
2018-04-08T13:33:14.506Z,20.50
2018-04-08T13:35:42.066Z,20.50
2018-04-08T13:38:09.606Z,20.50
2018-04-08T13:40:37.177Z,20.20
2018-04-08T13:43:04.773Z,20.40
2018-04-08T13:45:32.375Z,20.40
2018-04-08T13:48:01.668Z,20.30
2018-04-08T13:50:30.003Z,20.30
2018-04-08T13:52:57.545Z,20.20
2018-04-08T13:55:25.126Z,20.30
2018-04-08T13:57:52.689Z,20.50
2018-04-08T14:00:20.254Z,20.50
2018-04-08T14:02:47.850Z,20.60
2018-04-08T14:05:16.181Z,20.70
2018-04-08T14:07:43.732Z,20.70
2018-04-08T14:10:11.356Z,20.40
2018-04-08T14:12:38.897Z,20.30
2018-04-08T14:15:06.469Z,20.30
2018-04-08T14:17:34.010Z,20.20
2018-04-08T14:20:01.673Z,20.20
2018-04-08T14:22:29.212Z,20.40
2018-04-08T14:24:56.807Z,20.30
2018-04-08T14:27:24.359Z,20.50
2018-04-08T14:29:51.927Z,20.60
2018-04-08T14:32:19.545Z,20.50
2018-04-08T14:34:47.147Z,20.60
2018-04-08T14:37:14.891Z,20.70
2018-04-08T14:39:42.467Z,20.60
2018-04-08T14:42:10.063Z,20.60
2018-04-08T14:44:37.622Z,20.60
2018-04-08T14:47:05.926Z,20.70
2018-04-08T14:49:33.505Z,20.70
2018-04-08T14:52:01.117Z,20.60
2018-04-08T14:54:28.703Z,20.60
2018-04-08T14:56:56.258Z,20.60
2018-04-08T14:59:23.824Z,20.40
2018-04-08T15:01:51.410Z,20.30
2018-04-08T15:04:19.003Z,20.40
2018-04-08T15:06:46.570Z,20.50
2018-04-08T15:09:14.877Z,20.60
2018-04-08T15:11:42.501Z,20.50
2018-04-08T15:14:10.038Z,20.50
2018-04-08T15:16:38.370Z,20.50
2018-04-08T15:19:06.059Z,20.50
2018-04-08T15:21:34.402Z,20.50
2018-04-08T15:24:01.992Z,20.50
2018-04-08T15:26:29.590Z,20.40
2018-04-08T15:28:57.405Z,20.30
2018-04-08T15:31:25.005Z,20.20
2018-04-08T15:33:53.319Z,20.00
2018-04-08T15:36:21.647Z,20.10
2018-04-08T15:38:49.194Z,20.10
2018-04-08T15:41:16.762Z,20.20
2018-04-08T15:43:44.327Z,20.10
2018-04-08T15:46:11.987Z,20.20
2018-04-08T15:48:39.600Z,20.20
2018-04-08T15:51:07.125Z,20.10
2018-04-08T15:53:34.666Z,20.10
2018-04-08T15:56:02.288Z,20.10
2018-04-08T15:58:30.602Z,20.00
2018-04-08T16:00:58.180Z,20.00
2018-04-08T16:03:25.744Z,20.00
2018-04-08T16:05:54.113Z,20.00
2018-04-08T16:08:21.692Z,20.00
2018-04-08T16:10:49.287Z,20.00
2018-04-08T16:13:17.609Z,19.80
2018-04-08T16:15:45.204Z,19.90
2018-04-08T16:18:12.774Z,19.90
2018-04-08T16:20:40.326Z,19.80
2018-04-08T16:23:08.077Z,19.70
2018-04-08T16:25:35.713Z,19.70
2018-04-08T16:28:03.375Z,19.60
2018-04-08T16:30:30.937Z,19.60
2018-04-08T16:32:58.643Z,19.60
2018-04-08T16:35:26.212Z,19.60
2018-04-08T16:37:53.811Z,19.50
2018-04-08T16:40:21.357Z,19.40
2018-04-08T16:42:48.993Z,19.40
2018-04-08T16:45:16.592Z,19.30
2018-04-08T16:47:44.203Z,19.30
2018-04-08T16:50:12.545Z,19.10
2018-04-08T16:52:40.147Z,19.20
2018-04-08T16:55:07.764Z,19.10
2018-04-08T16:57:35.359Z,19.10
2018-04-08T17:00:03.032Z,19.00
2018-04-08T17:02:30.651Z,18.90
2018-04-08T17:04:58.227Z,18.90
2018-04-08T17:07:25.834Z,18.80
2018-04-08T17:09:54.150Z,18.60
2018-04-08T17:12:21.718Z,18.60
2018-04-08T17:14:49.277Z,18.60
2018-04-08T17:17:16.854Z,18.60
2018-04-08T17:19:44.399Z,18.50
2018-04-08T17:22:11.980Z,18.40
2018-04-08T17:24:39.570Z,18.30
2018-04-08T17:27:07.143Z,18.30
2018-04-08T17:29:34.794Z,18.30
2018-04-08T17:32:03.163Z,18.10
2018-04-08T17:34:30.815Z,18.10
2018-04-08T17:37:02.053Z,18.10
2018-04-08T17:39:29.686Z,18.00
2018-04-08T17:41:57.226Z,17.90
2018-04-08T17:44:24.789Z,17.80
2018-04-08T17:46:53.106Z,17.50
2018-04-08T17:49:20.700Z,17.50
2018-04-08T17:51:49.005Z,17.40
2018-04-08T17:54:16.698Z,17.30
2018-04-08T17:56:44.358Z,17.40
2018-04-08T17:59:12.111Z,17.40
2018-04-08T18:01:39.724Z,17.30
2018-04-08T18:04:08.842Z,17.10
2018-04-08T18:06:37.178Z,17.00
2018-04-08T18:09:04.767Z,16.90
2018-04-08T18:11:32.373Z,16.90
2018-04-08T18:14:00.045Z,16.70
2018-04-08T18:16:27.602Z,16.50
2018-04-08T18:18:55.155Z,16.40
2018-04-08T18:21:22.760Z,16.30
2018-04-08T18:23:50.319Z,16.20
2018-04-08T18:26:17.904Z,16.20
2018-04-08T18:28:46.322Z,15.90
2018-04-08T18:31:13.883Z,15.90
2018-04-08T18:33:41.457Z,15.80
2018-04-08T18:36:09.187Z,15.70
2018-04-08T18:38:36.745Z,15.60
2018-04-08T18:41:04.326Z,15.50
2018-04-08T18:43:31.992Z,15.40
2018-04-08T18:45:59.574Z,15.30
2018-04-08T18:48:27.137Z,15.20
2018-04-08T18:50:54.764Z,15.30
2018-04-08T18:53:22.330Z,15.40
2018-04-08T18:55:49.981Z,15.40
2018-04-08T18:58:17.515Z,15.30
2018-04-08T19:00:45.833Z,15.10
2018-04-08T19:03:13.406Z,15.10
2018-04-08T19:05:40.960Z,15.10
2018-04-08T19:08:08.551Z,15.00
2018-04-08T19:10:36.106Z,15.00
2018-04-08T19:13:03.686Z,15.00
2018-04-08T19:15:31.228Z,15.00
2018-04-08T19:18:02.596Z,14.90
2018-04-08T19:20:30.135Z,14.80
2018-04-08T19:22:57.723Z,14.80
2018-04-08T19:25:26.030Z,14.70
2018-04-08T19:27:53.610Z,14.70
2018-04-08T19:30:23.756Z,14.70
2018-04-08T19:32:51.329Z,14.70
2018-04-08T19:35:18.863Z,14.50
2018-04-08T19:37:46.473Z,14.40
2018-04-08T19:40:14.032Z,14.30
2018-04-08T19:42:41.633Z,14.10
2018-04-08T19:45:09.207Z,14.00
2018-04-08T19:47:36.785Z,13.90
2018-04-08T19:50:04.343Z,13.80
2018-04-08T19:52:33.183Z,13.80
2018-04-08T19:55:00.741Z,13.80
2018-04-08T19:57:28.297Z,13.80
2018-04-08T19:59:56.609Z,13.70
2018-04-08T20:02:24.158Z,13.70
2018-04-08T20:04:51.762Z,13.70
2018-04-08T20:07:19.314Z,13.60
2018-04-08T20:09:46.935Z,13.60
2018-04-08T20:12:14.537Z,13.40
2018-04-08T20:14:42.143Z,13.40
2018-04-08T20:17:09.719Z,13.40
2018-04-08T20:19:37.326Z,13.30
2018-04-08T20:22:04.949Z,13.20
2018-04-08T20:24:32.560Z,13.10
2018-04-08T20:27:00.918Z,12.90
2018-04-08T20:29:28.484Z,12.80
2018-04-08T20:31:56.028Z,12.80
2018-04-08T20:34:23.643Z,12.70
2018-04-08T20:36:51.212Z,12.60
2018-04-08T20:39:18.819Z,12.60
2018-04-08T20:41:46.374Z,12.50
2018-04-08T20:44:13.941Z,12.60
2018-04-08T20:46:42.265Z,12.50
2018-04-08T20:49:10.661Z,12.40
2018-04-08T20:51:38.961Z,12.30
2018-04-08T20:54:07.547Z,12.30
2018-04-08T20:56:35.198Z,12.20
2018-04-08T20:59:02.765Z,12.10
2018-04-08T21:01:31.310Z,12.10
2018-04-08T21:03:59.694Z,11.90
2018-04-08T21:06:28.003Z,11.90
2018-04-08T21:08:55.613Z,11.90
2018-04-08T21:11:23.158Z,11.70
2018-04-08T21:13:50.777Z,11.70
2018-04-08T21:16:18.337Z,11.60
2018-04-08T21:18:45.936Z,11.50
2018-04-08T21:21:13.478Z,11.50
2018-04-08T21:23:41.086Z,11.40
2018-04-08T21:26:08.713Z,11.40
2018-04-08T21:28:36.277Z,11.30
2018-04-08T21:31:03.835Z,11.20
2018-04-08T21:33:31.395Z,11.20
2018-04-08T21:35:58.954Z,11.10
2018-04-08T21:38:26.523Z,11.10
2018-04-08T21:40:54.119Z,11.00
2018-04-08T21:43:22.413Z,10.90
2018-04-08T21:45:50.000Z,10.90
2018-04-08T21:48:17.575Z,10.90
2018-04-08T21:50:45.138Z,10.80
2018-04-08T21:53:12.698Z,10.80
2018-04-08T21:55:40.271Z,10.70
2018-04-08T21:58:07.817Z,10.70
2018-04-08T22:00:35.373Z,10.60
2018-04-08T22:03:02.923Z,10.60
2018-04-08T22:05:30.485Z,10.60
2018-04-08T22:07:58.056Z,10.60
2018-04-08T22:10:25.612Z,10.50
2018-04-08T22:12:53.172Z,10.50
2018-04-08T22:15:20.729Z,10.60
2018-04-08T22:17:48.276Z,10.60
2018-04-08T22:20:15.892Z,10.60
2018-04-08T22:22:44.199Z,10.50
2018-04-08T22:25:11.768Z,10.40
2018-04-08T22:27:40.248Z,10.40
2018-04-08T22:30:07.825Z,10.40
2018-04-08T22:32:35.391Z,10.40
2018-04-08T22:35:02.961Z,10.30
2018-04-08T22:37:31.287Z,10.30
2018-04-08T22:39:59.626Z,10.20
2018-04-08T22:42:27.202Z,10.30
2018-04-08T22:44:54.796Z,10.20
2018-04-08T22:47:22.340Z,10.10
2018-04-08T22:49:50.688Z,10.00
2018-04-08T22:52:18.237Z,10.00
2018-04-08T22:54:45.791Z,10.00
2018-04-08T22:57:13.367Z,9.90
2018-04-08T22:59:40.943Z,9.90
2018-04-08T23:02:08.504Z,9.90
2018-04-08T23:04:36.053Z,9.80
2018-04-08T23:07:03.616Z,9.80
2018-04-08T23:09:31.241Z,9.80
2018-04-08T23:11:58.815Z,9.80
2018-04-08T23:14:26.370Z,9.70
2018-04-08T23:16:54.206Z,9.70
2018-04-08T23:19:21.746Z,9.60
2018-04-08T23:21:50.047Z,9.50
2018-04-08T23:24:17.625Z,9.50
2018-04-08T23:26:45.242Z,9.50
2018-04-08T23:29:13.577Z,9.50
2018-04-08T23:31:41.121Z,9.50
2018-04-08T23:34:08.873Z,9.50
2018-04-08T23:36:36.654Z,9.50
2018-04-08T23:39:04.234Z,9.80
2018-04-08T23:41:31.788Z,9.80
2018-04-08T23:43:59.370Z,9.90
2018-04-08T23:46:26.911Z,9.90
2018-04-08T23:48:54.507Z,10.20
2018-04-08T23:51:22.821Z,10.00
2018-04-08T23:53:50.393Z,9.90
2018-04-08T23:56:17.946Z,9.80
2018-04-08T23:58:45.551Z,9.60
